Prudentia — PB4900 — position and weather

sailwx.info

Track history (hours):
 
Tides and Currents Weather Stations Pressure Air Temp Water Temp Dewpoint Dewpoint Depression Visibility Wind Speed Wind Dir Waves Ship Positions

Prudentia

Last reported at 2015-Jan-26 21:34 UTC. Time now 2015-Jan-26 22:31 UTC.
Position N 51°59' E 005°15'.

Length 70 m; draft 1.8 m.

Type: Ship. MMSI: 244660779.

Date/timePositionNaut miles runAvg speedWind from/ knotsBaromVisibWave heightAir tempDewpointWater temp
2015-Jan-26 21:34N 51°59' E 005°15'7 7.0
2015-Jan-26 20:33N 52°03' E 005°06'7 6.9
2015-Jan-26 19:33N 52°09' E 005°00'7 7.0
2015-Jan-26 18:33N 52°16' E 005°01'7 6.6
2015-Jan-26 17:33N 52°22' E 004°57'4 3.8
2015-Jan-26 16:34N 52°24' E 004°52'0 0.0
2015-Jan-26 15:34N 52°24' E 004°52'0 0.1
2015-Jan-26 14:33N 52°24' E 004°52'2 2.1
2015-Jan-26 13:34N 52°23' E 004°54'6 5.9
2015-Jan-26 12:33N 52°19' E 005°01'8 6.9
2015-Jan-26 11:26N 52°11' E 004°60'5 6.2
2015-Jan-26 10:33N 52°06' E 005°05'5 5.2
2015-Jan-26 09:33N 52°01' E 005°07'0 0.0
2015-Jan-26 08:33N 52°01' E 005°07'0 0.0
2015-Jan-26 07:33N 52°01' E 005°07'0 0.0
2015-Jan-26 06:33N 52°01' E 005°07'0 0.0
2015-Jan-26 05:33N 52°01' E 005°07'0 0.0
2015-Jan-26 04:33N 52°01' E 005°07'0 0.0
2015-Jan-26 03:33N 52°01' E 005°07'0 0.0
2015-Jan-26 02:33N 52°01' E 005°07'0 0.0
2015-Jan-26 01:33N 52°01' E 005°07'0 0.0
2015-Jan-26 00:33N 52°01' E 005°07'0 0.0
2015-Jan-25 23:33N 52°01' E 005°07'0 0.0
2015-Jan-25 22:33N 52°01' E 005°07'0 0.0
2015-Jan-25 21:33N 52°01' E 005°07'0 0.0
2015-Jan-25 20:33N 52°01' E 005°07'0 0.0
2015-Jan-25 19:33N 52°01' E 005°07'0 0.0
2015-Jan-25 18:33N 52°01' E 005°07'0 0.0
2015-Jan-25 17:33N 52°01' E 005°07'0 0.0
2015-Jan-25 16:33N 52°01' E 005°07'0 0.0
2015-Jan-25 15:33N 52°01' E 005°07'1 0.6
2015-Jan-25 14:33N 52°01' E 005°07'4 4.3
2015-Jan-25 13:33N 51°59' E 005°01'6 5.7
2015-Jan-25 12:33N 51°56' E 004°52'6 6.3
2015-Jan-25 11:33N 51°54' E 004°43'5 4.7
2015-Jan-25 10:33N 51°49' E 004°40'1 0.6
2015-Jan-25 09:32N 51°49' E 004°39'0 0.0
2015-Jan-25 08:33N 51°49' E 004°39'0 0.0
2015-Jan-25 07:33N 51°49' E 004°39'0 0.0
2015-Jan-25 06:33N 51°49' E 004°39'0 0.0
2015-Jan-25 05:33N 51°49' E 004°39'0 0.0
2015-Jan-25 04:33N 51°49' E 004°39'0 0.0
2015-Jan-25 03:33N 51°49' E 004°39'0 0.0
2015-Jan-25 02:33N 51°49' E 004°39'0 0.0
2015-Jan-25 01:33N 51°49' E 004°39'0 0.0
2015-Jan-25 00:33N 51°49' E 004°39'0 0.0
2015-Jan-24 23:33N 51°49' E 004°39'0 0.0
2015-Jan-24 22:33N 51°49' E 004°39'0 0.0
2015-Jan-24 21:33N 51°49' E 004°39'0 0.0
2015-Jan-24 20:33N 51°49' E 004°39'0 0.0
2015-Jan-24 19:33N 51°49' E 004°39'0 0.0
2015-Jan-24 18:33N 51°49' E 004°39'0 0.0
2015-Jan-24 17:33N 51°49' E 004°39'0 0.0
2015-Jan-24 16:33N 51°49' E 004°39'0 0.0
2015-Jan-24 15:33N 51°49' E 004°39'0 0.0
2015-Jan-24 14:33N 51°49' E 004°39'0 0.0
2015-Jan-24 13:33N 51°49' E 004°39'0 0.0
2015-Jan-24 12:33N 51°49' E 004°39'0 0.0
2015-Jan-24 11:33N 51°49' E 004°39'0 0.0
2015-Jan-24 10:33N 51°49' E 004°39'0 0.0
2015-Jan-24 09:33N 51°49' E 004°39'0 0.0
2015-Jan-24 08:33N 51°49' E 004°39'0 0.0
2015-Jan-24 07:33N 51°49' E 004°39'0 0.0
2015-Jan-24 06:33N 51°49' E 004°39'0 0.0
2015-Jan-24 05:33N 51°49' E 004°39'0 0.0
2015-Jan-24 04:33N 51°49' E 004°39'0 0.0
2015-Jan-24 03:33N 51°49' E 004°39'0 0.0
2015-Jan-24 02:33N 51°49' E 004°39'0 0.0
2015-Jan-24 01:33N 51°49' E 004°39'0 0.0
2015-Jan-24 00:33N 51°49' E 004°39'0 0.0
2015-Jan-23 23:33N 51°49' E 004°39'0 0.0
2015-Jan-23 22:33N 51°49' E 004°39'0 0.0
2015-Jan-23 21:33N 51°49' E 004°39'0 0.0
2015-Jan-23 20:33N 51°49' E 004°39'0 0.0
2015-Jan-23 19:33N 51°49' E 004°39'0 0.0
2015-Jan-23 18:33N 51°49' E 004°39'0 0.0
2015-Jan-23 17:33N 51°49' E 004°39'0 0.0
2015-Jan-23 16:33N 51°49' E 004°39'0 0.0
2015-Jan-23 15:33N 51°49' E 004°39'0 0.0
2015-Jan-23 14:33N 51°49' E 004°39'0 0.0
2015-Jan-23 13:33N 51°49' E 004°39'0 0.0
2015-Jan-23 12:33N 51°49' E 004°39'0 0.0
2015-Jan-23 11:33N 51°49' E 004°39'0 0.0
2015-Jan-23 10:33N 51°49' E 004°39'0 0.0
2015-Jan-23 09:33N 51°49' E 004°39'0 0.0
2015-Jan-23 08:33N 51°49' E 004°39'0 0.0
2015-Jan-23 07:33N 51°49' E 004°39'0 0.0
2015-Jan-23 06:33N 51°49' E 004°39'0 0.0
2015-Jan-23 05:33N 51°49' E 004°39'0 0.0
2015-Jan-23 04:33N 51°49' E 004°39'0 0.0
2015-Jan-23 03:33N 51°49' E 004°39'0 0.0
2015-Jan-23 02:33N 51°49' E 004°39'0 0.0
2015-Jan-23 01:33N 51°49' E 004°39'0 0.0
2015-Jan-23 00:33N 51°49' E 004°39'0 0.0
2015-Jan-22 23:33N 51°49' E 004°39'0 0.0
2015-Jan-22 22:33N 51°49' E 004°39'0 0.0
2015-Jan-22 21:33N 51°49' E 004°39'0 0.0
2015-Jan-22 20:33N 51°49' E 004°39'0 0.0
2015-Jan-22 19:33N 51°49' E 004°39'0 0.0
2015-Jan-22 18:33N 51°49' E 004°39'0 0.0
2015-Jan-22 17:33N 51°49' E 004°39'0 0.2
2015-Jan-22 16:33N 51°49' E 004°39'6 5.5
2015-Jan-22 15:33N 51°43' E 004°39'8 7.8
2015-Jan-22 14:33N 51°43' E 004°51'8 8.3
2015-Jan-22 13:33N 51°43' E 005°04'8 8.1
2015-Jan-22 12:33N 51°44' E 005°17'2 1.9
2015-Jan-22 11:33N 51°44' E 005°20'4 4.0
2015-Jan-22 10:33N 51°40' E 005°23'3 3.3
2015-Jan-22 09:33N 51°39' E 005°28'2 1.8
2015-Jan-22 08:31N 51°37' E 005°30'0 0.0
2015-Jan-22 07:25N 51°37' E 005°30'0 0.0
2015-Jan-22 06:32N 51°37' E 005°30'0 0.0
2015-Jan-22 05:31N 51°37' E 005°30'0 0.0
2015-Jan-22 04:31N 51°37' E 005°30'0 0.0
2015-Jan-22 03:33N 51°37' E 005°30'0 0.3
2015-Jan-22 02:31N 51°37' E 005°31'0 0.0
2015-Jan-22 01:32N 51°37' E 005°31'0 0.0
2015-Jan-22 00:33N 51°37' E 005°31'0 0.0
2015-Jan-21 23:30N 51°37' E 005°31'0 0.0
2015-Jan-21 22:49N 51°37' E 005°31'0 0.0
2015-Jan-21 22:44N 51°37' E 005°31'0 0.0
2015-Jan-21 22:32N 51°37' E 005°31'0 0.0
2015-Jan-21 21:32N 51°37' E 005°31'0 0.0
2015-Jan-21 20:32N 51°37' E 005°31'0 0.0
2015-Jan-21 18:10N 51°37' E 005°31'0 0.0
2015-Jan-21 17:33N 51°37' E 005°31'0 0.0
2015-Jan-21 16:31N 51°37' E 005°31'0 0.0
2015-Jan-21 15:30N 51°37' E 005°31'0 0.0
2015-Jan-21 14:31N 51°37' E 005°31'0 0.0
2015-Jan-21 13:33N 51°37' E 005°31'0 0.0
2015-Jan-21 12:33N 51°37' E 005°31'0 0.0
2015-Jan-21 11:33N 51°37' E 005°31'0 0.0
2015-Jan-21 10:32N 51°37' E 005°31'0 0.0
2015-Jan-21 09:33N 51°37' E 005°31'0 0.0
2015-Jan-21 08:32N 51°37' E 005°31'0 0.0
2015-Jan-21 07:33N 51°37' E 005°31'0 0.0
2015-Jan-21 06:33N 51°37' E 005°31'0 0.0
2015-Jan-21 05:32N 51°37' E 005°31'0 0.0
2015-Jan-21 04:32N 51°37' E 005°31'0 0.0
2015-Jan-21 03:32N 51°37' E 005°31'0 0.0
2015-Jan-21 02:33N 51°37' E 005°31'0 0.0
2015-Jan-21 01:33N 51°37' E 005°31'0 0.0
2015-Jan-21 00:32N 51°37' E 005°31'0 0.0
2015-Jan-20 23:31N 51°37' E 005°31'0 0.0
2015-Jan-20 22:32N 51°37' E 005°31'0 0.0
2015-Jan-20 21:31N 51°37' E 005°31'0 0.0
2015-Jan-20 20:27N 51°37' E 005°31'0 0.0
2015-Jan-20 19:32N 51°37' E 005°31'0 0.0
2015-Jan-20 18:33N 51°37' E 005°31'0 0.0
2015-Jan-20 17:32N 51°37' E 005°31'0 0.0
2015-Jan-20 16:32N 51°37' E 005°31'0 0.0
2015-Jan-20 15:32N 51°37' E 005°31'0 0.0
2015-Jan-20 14:33N 51°37' E 005°31'0 0.0
2015-Jan-20 13:32N 51°37' E 005°31'0 0.0
2015-Jan-20 12:33N 51°37' E 005°31'0 0.0
2015-Jan-20 11:33N 51°37' E 005°31'0 0.0
2015-Jan-20 10:33N 51°37' E 005°31'0 0.0
2015-Jan-20 09:33N 51°37' E 005°31'2 1.8
2015-Jan-20 08:33N 51°38' E 005°29'2 1.7
2015-Jan-20 07:33N 51°39' E 005°26'4 3.9
2015-Jan-20 06:30N 51°42' E 005°22'3 2.8
2015-Jan-20 05:33N 51°44' E 005°20'3 2.9
2015-Jan-20 04:31N 51°44' E 005°15'0 0.0
2015-Jan-20 03:33N 51°44' E 005°15'0 0.0
2015-Jan-20 02:21N 51°44' E 005°15'0 0.0
2015-Jan-20 01:33N 51°44' E 005°15'0 0.0
2015-Jan-20 00:33N 51°44' E 005°15'0 0.0
2015-Jan-19 23:33N 51°44' E 005°15'1 0.9
2015-Jan-19 22:32N 51°44' E 005°14'5 5.5
2015-Jan-19 21:33N 51°44' E 005°05'6 5.6
2015-Jan-19 20:33N 51°43' E 004°56'6 6.1
2015-Jan-19 19:33N 51°43' E 004°46'5 5.5
2015-Jan-19 18:33N 51°44' E 004°38'7 6.9
2015-Jan-19 17:33N 51°51' E 004°40'6 6.1
2015-Jan-19 16:33N 51°54' E 004°32'3 3.4
2015-Jan-19 15:33N 51°53' E 004°26'0 0.0
2015-Jan-19 14:33N 51°53' E 004°26'0 0.0
2015-Jan-19 13:34N 51°53' E 004°26'0 0.3
2015-Jan-19 12:33N 51°53' E 004°27'0 0.0
2015-Jan-19 11:33N 51°53' E 004°27'0 0.0
2015-Jan-19 10:33N 51°53' E 004°27'0 0.0
2015-Jan-19 09:33N 51°53' E 004°27'0 0.0
2015-Jan-19 08:33N 51°53' E 004°27'0 0.0
2015-Jan-19 07:33N 51°53' E 004°27'0 0.0
2015-Jan-19 06:33N 51°53' E 004°27'0 0.0
2015-Jan-19 05:33N 51°53' E 004°27'0 0.0
2015-Jan-19 04:33N 51°53' E 004°27'0 0.0
2015-Jan-19 03:33N 51°53' E 004°27'0 0.0
2015-Jan-19 02:33N 51°53' E 004°27'0 0.0
2015-Jan-19 01:33N 51°53' E 004°27'0 0.0
2015-Jan-19 00:34N 51°53' E 004°27'0 0.0
2015-Jan-18 23:34N 51°53' E 004°27'0 0.0
2015-Jan-18 22:33N 51°53' E 004°27'0 0.0
2015-Jan-18 21:33N 51°53' E 004°27'0 0.0
2015-Jan-18 20:34N 51°53' E 004°27'3 2.9
2015-Jan-18 19:33N 51°54' E 004°31'8 8.0
2015-Jan-18 18:34N 51°49' E 004°42'10 9.6
2015-Jan-18 17:34N 51°50' E 004°57'1010.4
2015-Jan-18 16:34N 51°49' E 005°14'9 8.9
2015-Jan-18 15:33N 51°53' E 005°27'1010.2
2015-Jan-18 14:34N 51°53' E 005°43'5 0.3
2015-Jan-17 22:30N 51°51' E 005°51'0 0.0
2015-Jan-17 21:33N 51°51' E 005°51'0 0.0
2015-Jan-17 20:18N 51°51' E 005°51'0 0.0
2015-Jan-17 19:27N 51°51' E 005°51'  
Track history (hours):
 
Tides and Currents Weather Stations Pressure Air Temp Water Temp Dewpoint Dewpoint Depression Visibility Wind Speed Wind Dir Waves Ship Positions

Prudentia

Last reported at 2015-Jan-26 21:34 UTC. Time now 2015-Jan-26 22:31 UTC.
Position N 51°59' E 005°15'.

Length 70 m; draft 1.8 m.

Type: Ship. MMSI: 244660779.

Date/timePositionNaut miles runAvg speedWind from/ knotsBaromVisibWave heightAir tempDewpointWater temp
2015-Jan-26 21:34N 51°59' E 005°15'7 7.0
2015-Jan-26 20:33N 52°03' E 005°06'7 6.9
2015-Jan-26 19:33N 52°09' E 005°00'7 7.0
2015-Jan-26 18:33N 52°16' E 005°01'7 6.6
2015-Jan-26 17:33N 52°22' E 004°57'4 3.8
2015-Jan-26 16:34N 52°24' E 004°52'0 0.0
2015-Jan-26 15:34N 52°24' E 004°52'0 0.1
2015-Jan-26 14:33N 52°24' E 004°52'2 2.1
2015-Jan-26 13:34N 52°23' E 004°54'6 5.9
2015-Jan-26 12:33N 52°19' E 005°01'8 6.9
2015-Jan-26 11:26N 52°11' E 004°60'5 6.2
2015-Jan-26 10:33N 52°06' E 005°05'5 5.2
2015-Jan-26 09:33N 52°01' E 005°07'0 0.0
2015-Jan-26 08:33N 52°01' E 005°07'0 0.0
2015-Jan-26 07:33N 52°01' E 005°07'0 0.0
2015-Jan-26 06:33N 52°01' E 005°07'0 0.0
2015-Jan-26 05:33N 52°01' E 005°07'0 0.0
2015-Jan-26 04:33N 52°01' E 005°07'0 0.0
2015-Jan-26 03:33N 52°01' E 005°07'0 0.0
2015-Jan-26 02:33N 52°01' E 005°07'0 0.0
2015-Jan-26 01:33N 52°01' E 005°07'0 0.0
2015-Jan-26 00:33N 52°01' E 005°07'0 0.0
2015-Jan-25 23:33N 52°01' E 005°07'0 0.0
2015-Jan-25 22:33N 52°01' E 005°07'0 0.0
2015-Jan-25 21:33N 52°01' E 005°07'0 0.0
2015-Jan-25 20:33N 52°01' E 005°07'0 0.0
2015-Jan-25 19:33N 52°01' E 005°07'0 0.0
2015-Jan-25 18:33N 52°01' E 005°07'0 0.0
2015-Jan-25 17:33N 52°01' E 005°07'0 0.0
2015-Jan-25 16:33N 52°01' E 005°07'0 0.0
2015-Jan-25 15:33N 52°01' E 005°07'1 0.6
2015-Jan-25 14:33N 52°01' E 005°07'4 4.3
2015-Jan-25 13:33N 51°59' E 005°01'6 5.7
2015-Jan-25 12:33N 51°56' E 004°52'6 6.3
2015-Jan-25 11:33N 51°54' E 004°43'5 4.7
2015-Jan-25 10:33N 51°49' E 004°40'1 0.6
2015-Jan-25 09:32N 51°49' E 004°39'0 0.0
2015-Jan-25 08:33N 51°49' E 004°39'0 0.0
2015-Jan-25 07:33N 51°49' E 004°39'0 0.0
2015-Jan-25 06:33N 51°49' E 004°39'0 0.0
2015-Jan-25 05:33N 51°49' E 004°39'0 0.0
2015-Jan-25 04:33N 51°49' E 004°39'0 0.0
2015-Jan-25 03:33N 51°49' E 004°39'0 0.0
2015-Jan-25 02:33N 51°49' E 004°39'0 0.0
2015-Jan-25 01:33N 51°49' E 004°39'0 0.0
2015-Jan-25 00:33N 51°49' E 004°39'0 0.0
2015-Jan-24 23:33N 51°49' E 004°39'0 0.0
2015-Jan-24 22:33N 51°49' E 004°39'0 0.0
2015-Jan-24 21:33N 51°49' E 004°39'0 0.0
2015-Jan-24 20:33N 51°49' E 004°39'0 0.0
2015-Jan-24 19:33N 51°49' E 004°39'0 0.0
2015-Jan-24 18:33N 51°49' E 004°39'0 0.0
2015-Jan-24 17:33N 51°49' E 004°39'0 0.0
2015-Jan-24 16:33N 51°49' E 004°39'0 0.0
2015-Jan-24 15:33N 51°49' E 004°39'0 0.0
2015-Jan-24 14:33N 51°49' E 004°39'0 0.0
2015-Jan-24 13:33N 51°49' E 004°39'0 0.0
2015-Jan-24 12:33N 51°49' E 004°39'0 0.0
2015-Jan-24 11:33N 51°49' E 004°39'0 0.0
2015-Jan-24 10:33N 51°49' E 004°39'0 0.0
2015-Jan-24 09:33N 51°49' E 004°39'0 0.0
2015-Jan-24 08:33N 51°49' E 004°39'0 0.0
2015-Jan-24 07:33N 51°49' E 004°39'0 0.0
2015-Jan-24 06:33N 51°49' E 004°39'0 0.0
2015-Jan-24 05:33N 51°49' E 004°39'0 0.0
2015-Jan-24 04:33N 51°49' E 004°39'0 0.0
2015-Jan-24 03:33N 51°49' E 004°39'0 0.0
2015-Jan-24 02:33N 51°49' E 004°39'0 0.0
2015-Jan-24 01:33N 51°49' E 004°39'0 0.0
2015-Jan-24 00:33N 51°49' E 004°39'0 0.0
2015-Jan-23 23:33N 51°49' E 004°39'0 0.0
2015-Jan-23 22:33N 51°49' E 004°39'0 0.0
2015-Jan-23 21:33N 51°49' E 004°39'0 0.0
2015-Jan-23 20:33N 51°49' E 004°39'0 0.0
2015-Jan-23 19:33N 51°49' E 004°39'0 0.0
2015-Jan-23 18:33N 51°49' E 004°39'0 0.0
2015-Jan-23 17:33N 51°49' E 004°39'0 0.0
2015-Jan-23 16:33N 51°49' E 004°39'0 0.0
2015-Jan-23 15:33N 51°49' E 004°39'0 0.0
2015-Jan-23 14:33N 51°49' E 004°39'0 0.0
2015-Jan-23 13:33N 51°49' E 004°39'0 0.0
2015-Jan-23 12:33N 51°49' E 004°39'0 0.0
2015-Jan-23 11:33N 51°49' E 004°39'0 0.0
2015-Jan-23 10:33N 51°49' E 004°39'0 0.0
2015-Jan-23 09:33N 51°49' E 004°39'0 0.0
2015-Jan-23 08:33N 51°49' E 004°39'0 0.0
2015-Jan-23 07:33N 51°49' E 004°39'0 0.0
2015-Jan-23 06:33N 51°49' E 004°39'0 0.0
2015-Jan-23 05:33N 51°49' E 004°39'0 0.0
2015-Jan-23 04:33N 51°49' E 004°39'0 0.0
2015-Jan-23 03:33N 51°49' E 004°39'0 0.0
2015-Jan-23 02:33N 51°49' E 004°39'0 0.0
2015-Jan-23 01:33N 51°49' E 004°39'0 0.0
2015-Jan-23 00:33N 51°49' E 004°39'0 0.0
2015-Jan-22 23:33N 51°49' E 004°39'0 0.0
2015-Jan-22 22:33N 51°49' E 004°39'0 0.0
2015-Jan-22 21:33N 51°49' E 004°39'0 0.0
2015-Jan-22 20:33N 51°49' E 004°39'0 0.0
2015-Jan-22 19:33N 51°49' E 004°39'0 0.0
2015-Jan-22 18:33N 51°49' E 004°39'0 0.0
2015-Jan-22 17:33N 51°49' E 004°39'0 0.2
2015-Jan-22 16:33N 51°49' E 004°39'6 5.5
2015-Jan-22 15:33N 51°43' E 004°39'8 7.8
2015-Jan-22 14:33N 51°43' E 004°51'8 8.3
2015-Jan-22 13:33N 51°43' E 005°04'8 8.1
2015-Jan-22 12:33N 51°44' E 005°17'2 1.9
2015-Jan-22 11:33N 51°44' E 005°20'4 4.0
2015-Jan-22 10:33N 51°40' E 005°23'3 3.3
2015-Jan-22 09:33N 51°39' E 005°28'2 1.8
2015-Jan-22 08:31N 51°37' E 005°30'0 0.0
2015-Jan-22 07:25N 51°37' E 005°30'0 0.0
2015-Jan-22 06:32N 51°37' E 005°30'0 0.0
2015-Jan-22 05:31N 51°37' E 005°30'0 0.0
2015-Jan-22 04:31N 51°37' E 005°30'0 0.0
2015-Jan-22 03:33N 51°37' E 005°30'0 0.3
2015-Jan-22 02:31N 51°37' E 005°31'0 0.0
2015-Jan-22 01:32N 51°37' E 005°31'0 0.0
2015-Jan-22 00:33N 51°37' E 005°31'0 0.0
2015-Jan-21 23:30N 51°37' E 005°31'0 0.0
2015-Jan-21 22:49N 51°37' E 005°31'0 0.0
2015-Jan-21 22:44N 51°37' E 005°31'0 0.0
2015-Jan-21 22:32N 51°37' E 005°31'0 0.0
2015-Jan-21 21:32N 51°37' E 005°31'0 0.0
2015-Jan-21 20:32N 51°37' E 005°31'0 0.0
2015-Jan-21 18:10N 51°37' E 005°31'0 0.0
2015-Jan-21 17:33N 51°37' E 005°31'0 0.0
2015-Jan-21 16:31N 51°37' E 005°31'0 0.0
2015-Jan-21 15:30N 51°37' E 005°31'0 0.0
2015-Jan-21 14:31N 51°37' E 005°31'0 0.0
2015-Jan-21 13:33N 51°37' E 005°31'0 0.0
2015-Jan-21 12:33N 51°37' E 005°31'0 0.0
2015-Jan-21 11:33N 51°37' E 005°31'0 0.0
2015-Jan-21 10:32N 51°37' E 005°31'0 0.0
2015-Jan-21 09:33N 51°37' E 005°31'0 0.0
2015-Jan-21 08:32N 51°37' E 005°31'0 0.0
2015-Jan-21 07:33N 51°37' E 005°31'0 0.0
2015-Jan-21 06:33N 51°37' E 005°31'0 0.0
2015-Jan-21 05:32N 51°37' E 005°31'0 0.0
2015-Jan-21 04:32N 51°37' E 005°31'0 0.0
2015-Jan-21 03:32N 51°37' E 005°31'0 0.0
2015-Jan-21 02:33N 51°37' E 005°31'0 0.0
2015-Jan-21 01:33N 51°37' E 005°31'0 0.0
2015-Jan-21 00:32N 51°37' E 005°31'0 0.0
2015-Jan-20 23:31N 51°37' E 005°31'0 0.0
2015-Jan-20 22:32N 51°37' E 005°31'0 0.0
2015-Jan-20 21:31N 51°37' E 005°31'0 0.0
2015-Jan-20 20:27N 51°37' E 005°31'0 0.0
2015-Jan-20 19:32N 51°37' E 005°31'0 0.0
2015-Jan-20 18:33N 51°37' E 005°31'0 0.0
2015-Jan-20 17:32N 51°37' E 005°31'0 0.0
2015-Jan-20 16:32N 51°37' E 005°31'0 0.0
2015-Jan-20 15:32N 51°37' E 005°31'0 0.0
2015-Jan-20 14:33N 51°37' E 005°31'0 0.0
2015-Jan-20 13:32N 51°37' E 005°31'0 0.0
2015-Jan-20 12:33N 51°37' E 005°31'0 0.0
2015-Jan-20 11:33N 51°37' E 005°31'0 0.0
2015-Jan-20 10:33N 51°37' E 005°31'0 0.0
2015-Jan-20 09:33N 51°37' E 005°31'2 1.8
2015-Jan-20 08:33N 51°38' E 005°29'2 1.7
2015-Jan-20 07:33N 51°39' E 005°26'4 3.9
2015-Jan-20 06:30N 51°42' E 005°22'3 2.8
2015-Jan-20 05:33N 51°44' E 005°20'3 2.9
2015-Jan-20 04:31N 51°44' E 005°15'0 0.0
2015-Jan-20 03:33N 51°44' E 005°15'0 0.0
2015-Jan-20 02:21N 51°44' E 005°15'0 0.0
2015-Jan-20 01:33N 51°44' E 005°15'0 0.0
2015-Jan-20 00:33N 51°44' E 005°15'0 0.0
2015-Jan-19 23:33N 51°44' E 005°15'1 0.9
2015-Jan-19 22:32N 51°44' E 005°14'5 5.5
2015-Jan-19 21:33N 51°44' E 005°05'6 5.6
2015-Jan-19 20:33N 51°43' E 004°56'6 6.1
2015-Jan-19 19:33N 51°43' E 004°46'5 5.5
2015-Jan-19 18:33N 51°44' E 004°38'7 6.9
2015-Jan-19 17:33N 51°51' E 004°40'6 6.1
2015-Jan-19 16:33N 51°54' E 004°32'3 3.4
2015-Jan-19 15:33N 51°53' E 004°26'0 0.0
2015-Jan-19 14:33N 51°53' E 004°26'0 0.0
2015-Jan-19 13:34N 51°53' E 004°26'0 0.3
2015-Jan-19 12:33N 51°53' E 004°27'0 0.0
2015-Jan-19 11:33N 51°53' E 004°27'0 0.0
2015-Jan-19 10:33N 51°53' E 004°27'0 0.0
2015-Jan-19 09:33N 51°53' E 004°27'0 0.0
2015-Jan-19 08:33N 51°53' E 004°27'0 0.0
2015-Jan-19 07:33N 51°53' E 004°27'0 0.0
2015-Jan-19 06:33N 51°53' E 004°27'0 0.0
2015-Jan-19 05:33N 51°53' E 004°27'0 0.0
2015-Jan-19 04:33N 51°53' E 004°27'0 0.0
2015-Jan-19 03:33N 51°53' E 004°27'0 0.0
2015-Jan-19 02:33N 51°53' E 004°27'0 0.0
2015-Jan-19 01:33N 51°53' E 004°27'0 0.0
2015-Jan-19 00:34N 51°53' E 004°27'0 0.0
2015-Jan-18 23:34N 51°53' E 004°27'0 0.0
2015-Jan-18 22:33N 51°53' E 004°27'0 0.0
2015-Jan-18 21:33N 51°53' E 004°27'0 0.0
2015-Jan-18 20:34N 51°53' E 004°27'3 2.9
2015-Jan-18 19:33N 51°54' E 004°31'8 8.0
2015-Jan-18 18:34N 51°49' E 004°42'10 9.6
2015-Jan-18 17:34N 51°50' E 004°57'1010.4
2015-Jan-18 16:34N 51°49' E 005°14'9 8.9
2015-Jan-18 15:33N 51°53' E 005°27'1010.2
2015-Jan-18 14:34N 51°53' E 005°43'5 0.3
2015-Jan-17 22:30N 51°51' E 005°51'0 0.0
2015-Jan-17 21:33N 51°51' E 005°51'0 0.0
2015-Jan-17 20:18N 51°51' E 005°51'0 0.0
2015-Jan-17 19:27N 51°51' E 005°51'  

Dump ship's entire track history